^^
Grace C. Lehan Memorial Weather Station Historical Data
Daily Summary for May 19, 2022 Units:  Metric    English   Both
Daily Weekly Monthly Yearly
  High: Low: Average:
Temperature: 17.1 °C 12.1 °C 14.2 °C
Dew Point: 13.9 °C 8.4 °C 12.2 °C
Humidity: 95% 59.7% 88%
Wind Speed: 1.3km/h 0km/h 0km/h
Wind Gust: 8km/h - -
Wind- - SSW
Pressure: 1011.1 hPa 1004.3 hPa -
Precipitation: 10.92 mm    
 
 
Tabular Data for May 19, 2022
Time Temperature Dew Point Pressure Wind Wind Speed Wind Gust Humidity Rainfall Rate (Hourly) solar
00:09 16.2 °C 8.4 °C 1010.7 hPa Calm     59.7% 0 mm 0 W/m2
00:14 16.2 °C 8.5 °C 1010.7 hPa Calm     60.1% 0 mm 0 W/m2
00:19 16.2 °C 8.7 °C 1011.1 hPa Calm     61% 0 mm 0 W/m2
00:24 16.2 °C 8.7 °C 1011.1 hPa Calm     61.4% 0 mm 0 W/m2
00:29 16.2 °C 8.9 °C 1011.1 hPa Calm     62% 0 mm 0 W/m2
00:34 16.1 °C 9.1 °C 1011.1 hPa Calm     63% 0 mm 0 W/m2
00:39 16.1 °C 9.1 °C 1011.1 hPa Calm     63.3% 0 mm 0 W/m2
00:44 16.1 °C 9.3 °C 1011.1 hPa Calm     64% 0 mm 0 W/m2
00:49 16 °C 9.3 °C 1011.1 hPa Calm     64.4% 0 mm 0 W/m2
00:54 15.9 °C 9.4 °C 1011.1 hPa Calm     65% 0 mm 0 W/m2
00:59 15.9 °C 9.6 °C 1011.1 hPa Calm     65.9% 0 mm 0 W/m2
01:04 15.9 °C 9.6 °C 1011.1 hPa Calm     66% 0 mm 0 W/m2
01:09 15.8 °C 9.8 °C 1011.1 hPa Calm     67.5% 0 mm 0 W/m2
01:14 15.8 °C 10 °C 1011.1 hPa Calm     68.3% 0 mm 0 W/m2
01:19 15.7 °C 10.1 °C 1011.1 hPa Calm     69.1% 0 mm 0 W/m2
01:24 15.7 °C 10.3 °C 1010.7 hPa Calm     70.6% 0 mm 0 W/m2
01:29 15.6 °C 10.4 °C 1010.7 hPa Calm     71.6% 0 mm 0 W/m2
01:34 15.4 °C 10.6 °C 1010.7 hPa Calm     72.7% 0 mm 0 W/m2
01:39 15.3 °C 10.6 °C 1010.7 hPa Calm     73% 0 mm 0 W/m2
01:44 15.3 °C 10.7 °C 1010.7 hPa Calm     74.1% 0 mm 0 W/m2
01:49 15.2 °C 10.8 °C 1010.7 hPa Calm     75% 0 mm 0 W/m2
01:54 15.1 °C 10.8 °C 1010.7 hPa Calm     75.6% 0 mm 0 W/m2
01:59 14.9 °C 10.8 °C 1010.4 hPa Calm     76% 0 mm 0 W/m2
02:04 14.8 °C 10.7 °C 1010 hPa Calm     76% 0 mm 0 W/m2
02:09 14.8 °C 10.7 °C 1010 hPa Calm     76.4% 0 mm 0 W/m2
02:14 14.7 °C 10.7 °C 1010 hPa Calm     77.1% 0 mm 0 W/m2
02:19 14.6 °C 10.8 °C 1010 hPa Calm     78% 0 mm 0 W/m2
02:24 14.5 °C 10.9 °C 1010 hPa Calm     78.7% 0 mm 0 W/m2
02:29 14.5 °C 11.1 °C 1010 hPa Calm     80.3% 0 mm 0 W/m2
02:34 14.4 °C 11.3 °C 1010 hPa Calm     81.7% 0.25 mm 0 W/m2
02:39 14.4 °C 11.5 °C 1010 hPa Calm     82.7% 0.25 mm 0 W/m2
02:44 14.3 °C 11.4 °C 1010 hPa Calm     83% 0.25 mm 0 W/m2
02:49 14.2 °C 11.5 °C 1010 hPa Calm     83.5% 0.25 mm 0 W/m2
02:54 14.2 °C 11.5 °C 1010 hPa Calm     84% 0.25 mm 0 W/m2
02:59 14.1 °C 11.5 °C 1010 hPa Calm     84.6% 0.25 mm 0 W/m2
03:04 14 °C 11.6 °C 1010 hPa Calm     85% 0.25 mm 0 W/m2
03:09 13.9 °C 11.6 °C 1010 hPa Calm     85.7% 0.51 mm 0 W/m2
03:14 13.8 °C 11.6 °C 1010 hPa Calm     86.2% 0.51 mm 0 W/m2
03:19 13.8 °C 11.7 °C 1009.7 hPa Calm     87% 0.51 mm 0 W/m2
03:24 13.8 °C 11.7 °C 1010 hPa Calm     87.5% 0.76 mm 0 W/m2
03:29 13.7 °C 11.8 °C 1010 hPa Calm     88% 0.76 mm 0 W/m2
03:34 13.7 °C 11.9 °C 1010 hPa Calm     88.9% 1.02 mm 0 W/m2
03:39 13.7 °C 11.9 °C 1010 hPa Calm     89% 1.02 mm 0 W/m2
03:44 13.6 °C 11.8 °C 1009.7 hPa Calm     89% 1.27 mm 0 W/m2
03:49 13.6 °C 11.8 °C 1009.7 hPa Calm     89.4% 1.27 mm 0 W/m2
03:54 13.5 °C 11.9 °C 1009.7 hPa Calm     90% 1.27 mm 0 W/m2
03:59 13.4 °C 11.8 °C 1009.7 hPa Calm     90% 1.52 mm 0 W/m2
04:00 13.4 °C 11.8 °C 1009.7 hPa Calm     90% 1.52 mm 0 W/m2
04:09 13.3 °C 11.8 °C 1009.7 hPa Calm     90.6% 1.52 mm 0 W/m2
04:14 13.3 °C 11.9 °C 1009.7 hPa Calm     91% 1.52 mm 0 W/m2
04:19 13.3 °C 11.9 °C 1009.4 hPa Calm     91% 1.52 mm 0 W/m2
04:24 13.3 °C 11.9 °C 1009.4 hPa Calm     91.3% 1.52 mm 0 W/m2
04:29 13.3 °C 11.9 °C 1009.4 hPa Calm     91.3% 1.78 mm 0 W/m2
04:34 13.3 °C 12.1 °C 1009.4 hPa Calm     92% 1.78 mm 0 W/m2
04:39 13.3 °C 12 °C 1009.4 hPa Calm     92% 1.02 mm 0 W/m2
04:44 13.2 °C 12 °C 1009.4 hPa Calm     92% 1.02 mm 0 W/m2
04:49 13.2 °C 11.9 °C 1009.4 hPa Calm     92% 1.27 mm 0 W/m2
04:54 13.2 °C 11.9 °C 1009 hPa Calm     92% 1.27 mm 0 W/m2
04:59 13.2 °C 11.9 °C 1009 hPa Calm     92% 1.52 mm 0 W/m2
05:04 13.1 °C 11.8 °C 1009 hPa Calm     92% 1.52 mm 0 W/m2
05:09 13.1 °C 11.9 °C 1008.7 hPa Calm     92.1% 0.76 mm 0 W/m2
05:14 13.1 °C 12 °C 1008.7 hPa Calm     93% 1.02 mm 0 W/m2
05:19 13.1 °C 12 °C 1008.7 hPa Calm     93% 1.27 mm 0 W/m2
05:24 13.1 °C 11.9 °C 1008.7 hPa Calm     93% 1.27 mm 0 W/m2
05:29 13.1 °C 11.9 °C 1008.7 hPa Calm     93% 1.52 mm 0 W/m2
05:34 13.1 °C 11.9 °C 1008.7 hPa Calm     93% 1.78 mm 0 W/m2
05:39 13.1 °C 11.9 °C 1009 hPa Calm     93% 2.03 mm 0 W/m2
05:44 13.1 °C 11.9 °C 1009 hPa Calm     93% 2.03 mm 0 W/m2
05:49 13.1 °C 11.9 °C 1009 hPa Calm     93% 2.29 mm 0 W/m2
05:54 13.1 °C 11.9 °C 1009 hPa Calm     93% 2.54 mm 0 W/m2
05:59 13.1 °C 11.9 °C 1009 hPa Calm     93% 2.79 mm 0 W/m2
06:04 13.1 °C 11.9 °C 1009.4 hPa Calm     93% 2.79 mm 0 W/m2
06:09 13 °C 11.9 °C 1009 hPa Calm     93% 2.79 mm 5 W/m2
06:14 12.9 °C 11.8 °C 1009 hPa Calm     93% 3.05 mm 5 W/m2
06:19 12.8 °C 11.7 °C 1009 hPa Calm     93% 3.3 mm 5 W/m2
06:24 12.7 °C 11.6 °C 1009.4 hPa Calm     93% 3.56 mm 5 W/m2
06:29 12.7 °C 11.6 °C 1009.4 hPa Calm     93% 3.81 mm 5 W/m2
06:34 12.7 °C 11.6 °C 1009.4 hPa Calm     93% 3.81 mm 7 W/m2
06:38 12.7 °C 11.6 °C 1009 hPa Calm     93.1% 3.05 mm 11 W/m2
06:44 12.7 °C 11.7 °C 1009 hPa Calm     94% 3.3 mm 9 W/m2
06:49 12.7 °C 11.7 °C 1009.4 hPa Calm     94% 3.56 mm 5 W/m2
06:54 12.7 °C 11.8 °C 1009.4 hPa Calm     94% 3.81 mm 23 W/m2
06:59 12.7 °C 11.8 °C 1008.7 hPa Calm     94% 4.32 mm 26 W/m2
07:04 12.7 °C 11.8 °C 1008.7 hPa Calm     94% 4.32 mm 16 W/m2
07:09 12.7 °C 11.8 °C 1008.7 hPa West 0.2 km/h 4.8 km/h 94% 3.56 mm 21 W/m2
07:14 12.7 °C 11.8 °C 1008.7 hPa Calm   4.8 km/h 94% 3.56 mm 21 W/m2
07:19 12.7 °C 11.7 °C 1008.7 hPa Calm   4.8 km/h 94% 3.81 mm 19 W/m2
07:24 12.7 °C 11.8 °C 1008.7 hPa Calm   4.8 km/h 94% 3.81 mm 12 W/m2
07:29 12.7 °C 11.8 °C 1008.7 hPa Calm   4.8 km/h 94% 4.06 mm 18 W/m2
07:34 12.7 °C 11.8 °C 1008.7 hPa Calm   4.8 km/h 94% 4.06 mm 18 W/m2
07:39 12.7 °C 11.8 °C 1008.7 hPa Calm     94% 2.54 mm 21 W/m2
07:44 12.7 °C 11.8 °C 1008.7 hPa Calm   1.6 km/h 94% 2.54 mm 25 W/m2
07:49 12.7 °C 11.8 °C 1008.7 hPa Calm   1.6 km/h 94% 2.54 mm 25 W/m2
07:54 12.7 °C 11.8 °C 1008.7 hPa Calm   1.6 km/h 94% 2.54 mm 21 W/m2
07:59 12.7 °C 11.8 °C 1008.7 hPa Calm   1.6 km/h 94% 2.79 mm 26 W/m2
08:00 12.7 °C 11.8 °C 1008.7 hPa Calm   1.6 km/h 94% 2.79 mm 26 W/m2
08:09 12.7 °C 11.8 °C 1008.4 hPa Calm     94% 1.27 mm 19 W/m2
08:14 12.7 °C 11.8 °C 1008.4 hPa Calm     94% 1.52 mm 16 W/m2
08:19 12.8 °C 12 °C 1008.4 hPa Calm     95% 1.52 mm 39 W/m2
08:24 12.8 °C 12.1 °C 1008.4 hPa Calm     95% 1.52 mm 67 W/m2
08:29 12.9 °C 12.1 °C 1008.4 hPa Calm     95% 1.52 mm 79 W/m2
08:34 12.9 °C 12.2 °C 1008.4 hPa Calm     95% 1.52 mm 54 W/m2
08:38 12.9 °C 12.2 °C 1008.4 hPa Calm     95% 0.76 mm 37 W/m2
08:43 13 °C 12.2 °C 1008.4 hPa West 0.5 km/h 4.8 km/h 95% 0.76 mm 21 W/m2
08:49 13 °C 12.2 °C 1008.4 hPa Calm   4.8 km/h 95% 0.76 mm 25 W/m2
08:54 13 °C 12.2 °C 1008.4 hPa Calm   4.8 km/h 95% 0.76 mm 25 W/m2
08:59 13 °C 12.2 °C 1008.4 hPa Calm   4.8 km/h 95% 0.76 mm 28 W/m2
09:04 13 °C 12.2 °C 1008.4 hPa Calm   4.8 km/h 95% 0.76 mm 32 W/m2
09:09 13 °C 12.2 °C 1008 hPa Calm     95% 0.51 mm 37 W/m2
09:14 13 °C 12.2 °C 1008 hPa Calm     95% 0.51 mm 33 W/m2
09:19 13.1 °C 12.3 °C 1008 hPa Calm     95% 0.76 mm 44 W/m2
09:24 13.1 °C 12.3 °C 1008 hPa Calm     95% 0.76 mm 40 W/m2
09:29 13.1 °C 12.3 °C 1007.7 hPa Calm     95% 0.76 mm 26 W/m2
09:34 13.1 °C 12.3 °C 1007.7 hPa Calm     95% 0.76 mm 35 W/m2
09:39 13.1 °C 12.3 °C 1007.7 hPa Calm     95% 0.76 mm 54 W/m2
09:44 13.1 °C 12.3 °C 1007.7 hPa Calm     95% 0.76 mm 46 W/m2
09:49 13.1 °C 12.3 °C 1007.7 hPa Calm     95% 0.76 mm 42 W/m2
09:54 13.1 °C 12.2 °C 1007.7 hPa Calm     95% 1.02 mm 42 W/m2
09:59 13 °C 12.2 °C 1007.7 hPa Calm     95% 1.02 mm 90 W/m2
10:04 13 °C 12.2 °C 1007.7 hPa Calm     95% 1.02 mm 93 W/m2
10:09 13 °C 12.2 °C 1007.7 hPa Calm     95% 1.02 mm 86 W/m2
10:14 13.1 °C 12.3 °C 1007.7 hPa Calm     95% 1.02 mm 74 W/m2
10:19 13.1 °C 12.3 °C 1007.3 hPa Calm   1.6 km/h 95% 1.02 mm 76 W/m2
10:24 13.1 °C 12.3 °C 1007.3 hPa Calm   1.6 km/h 95% 1.27 mm 67 W/m2
10:29 13.1 °C 12.3 °C 1007.3 hPa ESE 0.5 km/h 6.4 km/h 95% 1.27 mm 72 W/m2
10:34 13.1 °C 12.3 °C 1007.3 hPa Calm   6.4 km/h 95% 1.27 mm 77 W/m2
10:39 13.1 °C 12.3 °C 1007.3 hPa SE 0.2 km/h 3.2 km/h 95% 1.27 mm 90 W/m2
10:44 13.1 °C 12.3 °C 1007.3 hPa ESE 0.2 km/h 3.2 km/h 95% 1.27 mm 107 W/m2
10:49 13.2 °C 12.4 °C 1007 hPa SSE 0.3 km/h 6.4 km/h 95% 1.27 mm 134 W/m2
10:54 13.2 °C 12.4 °C 1007 hPa Calm   6.4 km/h 95% 1.27 mm 220 W/m2
10:59 13.3 °C 12.4 °C 1007 hPa Calm   6.4 km/h 95% 1.27 mm 199 W/m2
11:04 13.4 °C 12.6 °C 1007 hPa Calm   6.4 km/h 95% 1.27 mm 276 W/m2
11:09 13.5 °C 12.7 °C 1006.7 hPa Calm   1.6 km/h 95% 0.76 mm 301 W/m2
11:14 13.6 °C 12.8 °C 1006.7 hPa Calm   3.2 km/h 95% 0.76 mm 387 W/m2
11:19 13.6 °C 12.8 °C 1006.7 hPa Calm   3.2 km/h 95% 0.76 mm 387 W/m2
11:24 13.7 °C 12.9 °C 1006.7 hPa Calm   3.2 km/h 95% 0.76 mm 160 W/m2
11:29 13.7 °C 12.9 °C 1006.7 hPa SW 0.5 km/h 6.4 km/h 95% 0.76 mm 121 W/m2
11:34 13.6 °C 12.8 °C 1006.7 hPa South 1.3 km/h 8 km/h 95% 0.76 mm 148 W/m2
11:39 13.6 °C 12.8 °C 1006.7 hPa SSE 0.2 km/h 8 km/h 95% 0.25 mm 190 W/m2
11:44 13.6 °C 12.8 °C 1006.7 hPa Calm   8 km/h 95% 0.25 mm 202 W/m2
11:49 13.7 °C 12.9 °C 1006.7 hPa SW 0.8 km/h 8 km/h 95% 0.25 mm 135 W/m2
11:54 13.7 °C 12.9 °C 1006.7 hPa SW 0.2 km/h 8 km/h 95% 0.25 mm 91 W/m2
11:59 13.6 °C 12.8 °C 1006.7 hPa Calm   8 km/h 95% 0.25 mm 76 W/m2
12:00 13.6 °C 12.8 °C 1006.7 hPa Calm   8 km/h 95% 0.25 mm 74 W/m2
12:09 13.6 °C 12.8 °C 1006.3 hPa Calm   1.6 km/h 95% 0 mm 62 W/m2
12:14 13.6 °C 12.8 °C 1006.3 hPa SW 0.6 km/h 6.4 km/h 95% 0 mm 69 W/m2
12:19 13.5 °C 12.7 °C 1006.3 hPa SSW 0.3 km/h 6.4 km/h 95% 0 mm 74 W/m2
12:24 13.5 °C 12.7 °C 1006.3 hPa Calm   6.4 km/h 94.8% 0 mm 70 W/m2
12:29 13.5 °C 12.6 °C 1006.3 hPa SSW 0.5 km/h 6.4 km/h 94.6% 0 mm 67 W/m2
12:34 13.4 °C 12.5 °C 1006.3 hPa SSW 0.5 km/h 6.4 km/h 94% 0 mm 72 W/m2
12:39 13.4 °C 12.5 °C 1006 hPa Calm   4.8 km/h 94% 0 mm 76 W/m2
12:44 13.6 °C 12.6 °C 1006 hPa Calm   4.8 km/h 94% 0 mm 84 W/m2
12:49 13.6 °C 12.7 °C 1006 hPa Calm   4.8 km/h 94% 0 mm 88 W/m2
12:54 13.6 °C 12.7 °C 1006 hPa Calm   4.8 km/h 94% 0 mm 98 W/m2
12:59 13.6 °C 12.7 °C 1006 hPa Calm   4.8 km/h 94% 0 mm 102 W/m2
13:04 13.7 °C 12.8 °C 1006 hPa Calm   4.8 km/h 94% 0 mm 102 W/m2
13:09 13.7 °C 12.8 °C 1005.6 hPa Calm     94% 0 mm 107 W/m2
13:14 13.7 °C 12.8 °C 1005.3 hPa Calm     94% 0 mm 86 W/m2
13:19 13.7 °C 12.8 °C 1005.3 hPa SSW 0.6 km/h 4.8 km/h 94% 0 mm 111 W/m2
13:24 13.6 °C 12.7 °C 1005 hPa East 0.3 km/h 8 km/h 94% 0 mm 111 W/m2
13:29 13.6 °C 12.6 °C 1005.3 hPa Calm   8 km/h 94% 0 mm 111 W/m2
13:34 13.6 °C 12.7 °C 1005.3 hPa SE 0.5 km/h 8 km/h 94% 0 mm 139 W/m2
13:39 13.6 °C 12.6 °C 1005.3 hPa SE 0.5 km/h 4.8 km/h 94% 0 mm 163 W/m2
13:44 13.6 °C 12.6 °C 1005.3 hPa SE 0.2 km/h 4.8 km/h 94% 0 mm 181 W/m2
13:49 13.6 °C 12.6 °C 1005.3 hPa Calm   4.8 km/h 94% 0 mm 132 W/m2
13:54 13.7 °C 12.7 °C 1005.3 hPa Calm   4.8 km/h 94% 0 mm 192 W/m2
13:59 13.7 °C 12.8 °C 1005.3 hPa Calm   4.8 km/h 94% 0 mm 176 W/m2
14:04 13.7 °C 12.8 °C 1005.3 hPa Calm   4.8 km/h 94% 0 mm 142 W/m2
14:09 13.8 °C 12.8 °C 1005.3 hPa Calm     94% 0 mm 84 W/m2
14:14 13.9 °C 12.9 °C 1005.3 hPa Calm   1.6 km/h 94% 0 mm 142 W/m2
14:19 13.9 °C 13 °C 1005.3 hPa Calm   1.6 km/h 94% 0 mm 193 W/m2
14:24 14 °C 13.1 °C 1005.3 hPa Calm   1.6 km/h 93.9% 0 mm 345 W/m2
14:29 14 °C 13 °C 1005 hPa Calm   1.6 km/h 93.4% 0 mm 483 W/m2
14:34 14.3 °C 13.3 °C 1005 hPa SW 0.3 km/h 6.4 km/h 94% 0 mm 684 W/m2
14:39 14.4 °C 13.4 °C 1004.6 hPa Calm   6.4 km/h 93.7% 0 mm 773 W/m2
14:44 14.8 °C 13.7 °C 1005 hPa SSE 0.2 km/h 6.4 km/h 93.5% 0 mm 773 W/m2
14:49 15.1 °C 13.8 °C 1005 hPa Calm   6.4 km/h 92.5% 0 mm 494 W/m2
14:54 15.1 °C 13.6 °C 1004.6 hPa SSW 0.2 km/h 6.4 km/h 90.4% 0 mm 561 W/m2
14:59 15.3 °C 13.7 °C 1004.6 hPa Calm   6.4 km/h 89.9% 0 mm 561 W/m2
15:04 15.6 °C 13.7 °C 1004.6 hPa SW 0.2 km/h 6.4 km/h 89% 0 mm 446 W/m2
15:09 15.8 °C 13.8 °C 1004.6 hPa Calm   4.8 km/h 88.1% 0 mm 288 W/m2
15:14 15.9 °C 13.8 °C 1004.6 hPa SW 0.2 km/h 4.8 km/h 86.8% 0 mm 605 W/m2
15:19 16.2 °C 13.8 °C 1004.6 hPa SSW 0.2 km/h 4.8 km/h 86% 0 mm 311 W/m2
15:24 16.2 °C 13.4 °C 1004.6 hPa SSW 0.2 km/h 4.8 km/h 84% 0 mm 297 W/m2
15:29 16.1 °C 13.3 °C 1004.6 hPa SSW 0.2 km/h 4.8 km/h 83.5% 0 mm 255 W/m2
15:34 16.1 °C 13.2 °C 1004.6 hPa SSW 0.3 km/h 4.8 km/h 83.2% 0 mm 195 W/m2
15:39 16 °C 13.2 °C 1004.6 hPa SW 0.2 km/h 4.8 km/h 83.4% 0 mm 195 W/m2
15:44 15.9 °C 13.1 °C 1004.6 hPa Calm   4.8 km/h 83.1% 0 mm 165 W/m2
15:49 15.9 °C 13.2 °C 1004.3 hPa SSW 0.2 km/h 4.8 km/h 83.9% 0 mm 225 W/m2
15:54 15.9 °C 13.1 °C 1004.6 hPa SSW 0.2 km/h 4.8 km/h 83.1% 0 mm 267 W/m2
15:59 15.9 °C 13.3 °C 1004.6 hPa SW 0.5 km/h 8 km/h 84% 0 mm 221 W/m2
16:00 16 °C 13.3 °C 1004.6 hPa Calm   8 km/h 84% 0 mm 206 W/m2
16:09 16.1 °C 13.2 °C 1004.6 hPa Calm   1.6 km/h 83% 0 mm 213 W/m2
16:14 16.1 °C 13.2 °C 1004.6 hPa Calm   1.6 km/h 82.8% 0 mm 183 W/m2
16:19 16.1 °C 13.2 °C 1004.6 hPa Calm   1.6 km/h 83% 0 mm 167 W/m2
16:24 16.1 °C 13.2 °C 1004.6 hPa Calm   1.6 km/h 83% 0 mm 211 W/m2
16:29 16.2 °C 13.3 °C 1004.6 hPa Calm   1.6 km/h 83% 0 mm 237 W/m2
16:34 16.2 °C 13.3 °C 1004.6 hPa SSW 0.2 km/h 3.2 km/h 82.9% 0 mm 246 W/m2
16:39 16.2 °C 13.1 °C 1004.6 hPa Calm   3.2 km/h 82.1% 0 mm 258 W/m2
16:44 16.2 °C 13.3 °C 1004.3 hPa Calm   3.2 km/h 83% 0 mm 255 W/m2
16:49 16.3 °C 13.5 °C 1004.6 hPa Calm   3.2 km/h 83.2% 0 mm 264 W/m2
16:54 16.4 °C 13.4 °C 1004.6 hPa Calm   3.2 km/h 82.3% 0 mm 234 W/m2
16:59 16.6 °C 13.6 °C 1004.6 hPa SW 0.2 km/h 3.2 km/h 82.5% 0 mm 188 W/m2
17:04 16.6 °C 13.7 °C 1004.6 hPa Calm   3.2 km/h 83% 0 mm 221 W/m2
17:09 16.7 °C 13.7 °C 1004.6 hPa Calm     82.7% 0 mm 232 W/m2
17:14 16.7 °C 13.7 °C 1004.6 hPa Calm     82.2% 0 mm 151 W/m2
17:19 16.8 °C 13.6 °C 1004.6 hPa SW 0.5 km/h 4.8 km/h 81.2% 0 mm 113 W/m2
17:24 16.8 °C 13.7 °C 1004.6 hPa Calm   4.8 km/h 81.5% 0 mm 114 W/m2
17:29 16.8 °C 13.6 °C 1004.6 hPa SW 0.3 km/h 6.4 km/h 81.2% 0 mm 105 W/m2
17:34 16.8 °C 13.5 °C 1004.6 hPa Calm   6.4 km/h 81% 0 mm 218 W/m2
17:39 16.7 °C 13.5 °C 1004.6 hPa SW 0.2 km/h 1.6 km/h 81.2% 0 mm 213 W/m2
17:44 16.7 °C 13.5 °C 1004.6 hPa Calm   1.6 km/h 81.2% 0 mm 225 W/m2
17:49 16.8 °C 13.5 °C 1004.6 hPa Calm   1.6 km/h 81.1% 0 mm 225 W/m2
17:54 16.9 °C 13.8 °C 1004.3 hPa WSW 0.8 km/h 6.4 km/h 82% 0 mm 197 W/m2
17:59 17 °C 13.9 °C 1004.6 hPa Calm   6.4 km/h 82% 0 mm 167 W/m2
18:04 17.1 °C 13.6 °C 1004.6 hPa Calm   6.4 km/h 80.3% 0 mm 169 W/m2
18:09 17 °C 13.6 °C 1004.3 hPa Calm   1.6 km/h 80.1% 0 mm 137 W/m2
18:14 17 °C 13.7 °C 1004.3 hPa Calm   1.6 km/h 80.9% 0 mm 130 W/m2
18:19 16.9 °C 13.5 °C 1004.3 hPa Calm   1.6 km/h 80.2% 0 mm 113 W/m2
18:24 16.8 °C 13.3 °C 1004.3 hPa Calm   1.6 km/h 80% 0 mm 65 W/m2
18:29 16.7 °C 13.3 °C 1004.6 hPa Calm   3.2 km/h 80.2% 0 mm 69 W/m2
18:34 16.6 °C 13.3 °C 1004.6 hPa WSW 0.2 km/h 6.4 km/h 81.2% 0 mm 39 W/m2
18:39 16.5 °C 13.4 °C 1004.6 hPa Calm   6.4 km/h 81.8% 0 mm 33 W/m2
18:44 16.4 °C 13.3 °C 1004.6 hPa Calm   6.4 km/h 82% 0 mm 35 W/m2
18:49 16.4 °C 13.3 °C 1005 hPa Calm   6.4 km/h 82.2% 0 mm 30 W/m2
18:54 16.3 °C 13.3 °C 1005 hPa Calm   6.4 km/h 82.3% 0 mm 35 W/m2
18:59 16.3 °C 13.4 °C 1005 hPa Calm   6.4 km/h 83% 0 mm 37 W/m2
19:04 16.2 °C 13.3 °C 1005 hPa Calm   6.4 km/h 83% 0 mm 37 W/m2
19:09 16.1 °C 13.2 °C 1005 hPa Calm     83% 0 mm 37 W/m2
19:14 16 °C 13.1 °C 1005 hPa Calm     83% 0 mm 26 W/m2
19:19 15.9 °C 13.2 °C 1005.3 hPa Calm     83.8% 0 mm 23 W/m2
19:24 15.8 °C 13.1 °C 1005.3 hPa Calm     84% 0 mm 23 W/m2
19:29 15.8 °C 13.1 °C 1005.3 hPa Calm     84.2% 0 mm 19 W/m2
19:34 15.8 °C 13.2 °C 1005.3 hPa Calm     85% 0 mm 19 W/m2
19:39 15.7 °C 13.2 °C 1005.3 hPa Calm     85% 0 mm 18 W/m2
19:44 15.7 °C 13.2 °C 1005.3 hPa Calm     85% 0 mm 12 W/m2
19:49 15.6 °C 13.1 °C 1005.3 hPa Calm     85% 0 mm 11 W/m2
19:54 15.6 °C 13 °C 1005.3 hPa Calm     85% 0 mm 9 W/m2
19:59 15.4 °C 13.1 °C 1005.3 hPa Calm     86% 0 mm 7 W/m2
20:00 15.4 °C 13.1 °C 1005.3 hPa Calm     86% 0 mm 5 W/m2
20:09 15.3 °C 12.9 °C 1005.6 hPa Calm     86% 0 mm 0 W/m2
20:14 15.2 °C 12.9 °C 1005.6 hPa Calm     86.6% 0 mm 0 W/m2
20:19 15.1 °C 13 °C 1006 hPa Calm     87% 0 mm 0 W/m2
20:24 15.1 °C 12.9 °C 1006 hPa Calm     87% 0 mm 0 W/m2
20:29 14.9 °C 12.8 °C 1006 hPa Calm     87% 0 mm 0 W/m2
20:34 14.9 °C 12.7 °C 1006 hPa Calm     87% 0 mm 0 W/m2
20:39 14.8 °C 12.7 °C 1006.3 hPa Calm     87.4% 0 mm 0 W/m2
20:44 14.7 °C 12.8 °C 1006.3 hPa Calm     88% 0 mm 0 W/m2
20:49 14.7 °C 12.7 °C 1006.3 hPa Calm     88% 0 mm 0 W/m2
20:54 14.6 °C 12.6 °C 1006.3 hPa Calm     88% 0 mm 0 W/m2
20:59 14.6 °C 12.6 °C 1006.7 hPa Calm     88% 0 mm 0 W/m2
21:04 14.4 °C 12.5 °C 1006.7 hPa Calm     88% 0 mm 0 W/m2
21:09 14.4 °C 12.4 °C 1006.7 hPa Calm     88% 0 mm 0 W/m2
21:14 14.3 °C 12.3 °C 1006.7 hPa Calm     88% 0 mm 0 W/m2
21:19 14.2 °C 12.4 °C 1006.7 hPa Calm     88.6% 0 mm 0 W/m2
21:24 14.1 °C 12.3 °C 1007 hPa Calm     89% 0 mm 0 W/m2
21:29 14.1 °C 12.3 °C 1007.3 hPa Calm     89% 0 mm 0 W/m2
21:34 13.9 °C 12.2 °C 1007.3 hPa Calm     89% 0 mm 0 W/m2
21:39 13.8 °C 12.1 °C 1007.3 hPa Calm     89.4% 0 mm 0 W/m2
21:44 13.8 °C 12.1 °C 1007.3 hPa Calm     89.9% 0 mm 0 W/m2
21:49 13.7 °C 12.1 °C 1007.7 hPa Calm     90% 0 mm 0 W/m2
21:54 13.6 °C 12 °C 1008 hPa Calm     90% 0 mm 0 W/m2
21:59 13.5 °C 11.9 °C 1008 hPa Calm     90% 0 mm 0 W/m2
22:04 13.4 °C 11.8 °C 1008 hPa Calm     90% 0 mm 0 W/m2
22:09 13.3 °C 11.8 °C 1008 hPa Calm     90.7% 0 mm 0 W/m2
22:14 13.2 °C 11.8 °C 1008 hPa Calm     91% 0 mm 0 W/m2
22:19 13.1 °C 11.7 °C 1008 hPa Calm     91% 0 mm 0 W/m2
22:24 13.1 °C 11.6 °C 1008.4 hPa Calm     91% 0 mm 0 W/m2
22:29 13 °C 11.6 °C 1008.4 hPa Calm     91% 0 mm 0 W/m2
22:34 12.9 °C 11.5 °C 1008.4 hPa Calm     91% 0 mm 0 W/m2
22:39 12.9 °C 11.6 °C 1008.4 hPa Calm     91.8% 0 mm 0 W/m2
22:44 12.9 °C 11.6 °C 1008.7 hPa Calm     92% 0 mm 0 W/m2
22:49 12.8 °C 11.6 °C 1008.7 hPa Calm     92% 0 mm 0 W/m2
22:54 12.8 °C 11.6 °C 1008.7 hPa Calm     92% 0 mm 0 W/m2
22:59 12.8 °C 11.5 °C 1009 hPa Calm     92% 0 mm 0 W/m2
23:04 12.8 °C 11.6 °C 1009 hPa Calm     92.2% 0 mm 0 W/m2
23:09 12.7 °C 11.5 °C 1009 hPa Calm     92.1% 0 mm 0 W/m2
23:14 12.7 °C 11.4 °C 1009 hPa Calm     92% 0 mm 0 W/m2
23:19 12.6 °C 11.4 °C 1009 hPa Calm     92% 0 mm 0 W/m2
23:24 12.6 °C 11.3 °C 1009.4 hPa Calm     92.3% 0 mm 0 W/m2
23:29 12.4 °C 11.3 °C 1009.4 hPa Calm     92.9% 0 mm 0 W/m2
23:34 12.4 °C 11.3 °C 1009.4 hPa Calm     92.9% 0 mm 0 W/m2
23:39 12.3 °C 11.2 °C 1009.4 hPa Calm     93% 0 mm 0 W/m2
23:44 12.2 °C 11.2 °C 1009.4 hPa Calm     93% 0 mm 0 W/m2
23:49 12.2 °C 11.1 °C 1009.4 hPa Calm     93% 0 mm 0 W/m2
23:54 12.1 °C 11 °C 1009.4 hPa Calm     93% 0 mm 0 W/m2
23:59 12.1 °C 10.9 °C 1009.4 hPa Calm     93% 0 mm 0 W/m2
Hartford County Weather
Compliments of Weather Underground - 2 mb